Time;durP1;ratioP1;P1;durP2;ratioP2;P2;SDS_P1;SDS_P2;PMS_P1;PMS_P2;Temp;Humidity;BMP_temperature;BMP_pressure;BME280_temperature;BME280_humidity;BME280_pressure;Samples;Min_cycle;Max_cycle;Signal;HPM_P1;HPM_P2
2023/03/26 00:01:54;;;;;;;8.23;2.47;;;7.80;99.90;;;;;;5075659;28;20041;-37
2023/03/26 00:04:20;;;;;;;6.88;2.60;;;7.70;99.90;;;;;;5081358;28;20069;-36
2023/03/26 00:06:47;;;;;;;8.90;1.95;;;7.80;99.90;;;;;;5078481;28;20037;-37
2023/03/26 00:09:15;;;;;;;9.52;2.95;;;7.70;99.90;;;;;;5066856;28;20076;-37
2023/03/26 00:11:42;;;;;;;6.95;2.22;;;7.70;99.90;;;;;;5080280;28;20047;-37
2023/03/26 00:14:12;;;;;;;10.43;2.92;;;7.60;99.90;;;;;;5073000;28;20052;-36
2023/03/26 00:16:40;;;;;;;8.82;2.53;;;7.50;99.90;;;;;;5082968;28;20036;-36
2023/03/26 00:19:08;;;;;;;6.45;2.13;;;7.60;99.90;;;;;;5075410;28;20394;-36
2023/03/26 00:21:34;;;;;;;7.20;2.15;;;7.60;99.90;;;;;;5073836;28;20355;-36
2023/03/26 00:24:03;;;;;;;12.60;3.00;;;7.50;99.90;;;;;;5064289;28;20031;-37
2023/03/26 00:26:30;;;;;;;8.43;2.70;;;7.60;99.90;;;;;;5074603;28;20482;-36
2023/03/26 00:28:56;;;;;;;6.50;2.22;;;7.50;99.90;;;;;;5082691;28;20128;-36
2023/03/26 00:31:22;;;;;;;8.20;2.30;;;7.60;99.90;;;;;;5074331;28;20056;-37
2023/03/26 00:33:53;;;;;;;8.60;2.50;;;7.60;99.90;;;;;;5083786;28;20033;-37
2023/03/26 00:36:19;;;;;;;10.88;3.03;;;7.50;99.90;;;;;;5076172;28;20456;-37
2023/03/26 00:38:46;;;;;;;10.80;2.70;;;7.70;99.90;;;;;;5065434;28;20032;-36
2023/03/26 00:41:21;;;;;;;10.75;2.35;;;7.60;99.90;;;;;;5083380;28;20044;-36
2023/03/26 00:43:48;;;;;;;9.77;3.33;;;7.60;99.90;;;;;;5076541;28;20106;-36
2023/03/26 00:46:16;;;;;;;7.95;2.33;;;7.60;99.90;;;;;;5078967;28;20028;-37
2023/03/26 00:48:46;;;;;;;4.90;2.13;;;7.60;99.90;;;;;;5071488;28;20045;-37
2023/03/26 00:51:16;;;;;;;10.65;2.53;;;7.50;99.90;;;;;;5086428;28;20462;-37
2023/03/26 00:53:44;;;;;;;5.53;2.20;;;7.50;99.90;;;;;;5076590;28;20502;-37
2023/03/26 00:56:10;;;;;;;7.85;2.35;;;7.50;99.90;;;;;;5080104;28;20040;-37
2023/03/26 00:58:36;;;;;;;9.38;2.40;;;7.40;99.90;;;;;;5075245;28;20048;-37
2023/03/26 01:01:05;;;;;;;5.93;2.20;;;7.40;99.90;;;;;;5082162;28;20548;-36
2023/03/26 01:03:34;;;;;;;9.05;2.70;;;7.40;99.90;;;;;;5074932;28;20032;-37
2023/03/26 01:06:03;;;;;;;11.15;2.53;;;7.40;99.90;;;;;;5078021;28;20035;-36
2023/03/26 01:08:38;;;;;;;8.30;3.05;;;7.40;99.90;;;;;;5071414;28;20043;-37
2023/03/26 01:11:12;;;;;;;6.90;2.47;;;7.40;99.90;;;;;;5054219;28;20494;-36
2023/03/26 01:13:41;;;;;;;10.23;2.42;;;7.30;99.90;;;;;;5059290;28;20036;-36
2023/03/26 01:16:19;;;;;;;8.75;2.60;;;7.30;99.90;;;;;;5060922;28;20032;-36
2023/03/26 01:18:45;;;;;;;7.53;2.35;;;7.30;99.90;;;;;;5071664;28;20044;-36
2023/03/26 01:21:13;;;;;;;7.15;2.35;;;7.20;99.90;;;;;;5076413;28;20028;-36
2023/03/26 01:23:54;;;;;;;7.30;2.30;;;7.10;99.90;;;;;;5074348;28;20029;-36
2023/03/26 01:26:23;;;;;;;5.85;2.30;;;7.00;99.90;;;;;;5078308;28;20031;-36
2023/03/26 01:28:53;;;;;;;8.35;2.38;;;7.00;99.90;;;;;;5075682;28;20171;-37
2023/03/26 01:31:37;;;;;;;8.10;2.40;;;7.00;99.90;;;;;;5071603;28;20089;-36
2023/03/26 01:34:15;;;;;;;9.05;2.78;;;6.90;99.90;;;;;;5055334;28;20336;-37
2023/03/26 01:37:12;;;;;;;9.25;2.38;;;6.90;99.90;;;;;;5062746;28;20514;-36
2023/03/26 01:39:55;;;;;;;6.50;2.47;;;6.80;99.90;;;;;;5049990;28;20033;-37
2023/03/26 01:42:36;;;;;;;7.47;2.60;;;6.80;99.90;;;;;;5071890;28;20032;-36
2023/03/26 01:45:17;;;;;;;8.70;3.05;;;6.90;99.90;;;;;;5067940;28;20032;-36
2023/03/26 01:47:44;;;;;;;7.75;3.15;;;6.80;99.90;;;;;;5070064;28;20119;-37
2023/03/26 01:50:10;;;;;;;6.80;2.50;;;6.90;99.90;;;;;;5069316;28;20506;-36
2023/03/26 01:52:36;;;;;;;7.20;2.60;;;6.90;99.90;;;;;;5086966;28;20075;-36
2023/03/26 01:55:03;;;;;;;9.10;2.97;;;6.90;99.90;;;;;;5076267;28;20482;-36
2023/03/26 01:57:58;;;;;;;9.93;2.28;;;6.90;99.90;;;;;;5073964;28;20516;-36
2023/03/26 02:00:23;;;;;;;8.77;2.60;;;7.00;99.90;;;;;;5058889;28;20059;-36
2023/03/26 02:03:16;;;;;;;6.85;2.45;;;6.90;99.90;;;;;;5067237;28;20427;-36
2023/03/26 02:06:17;;;;;;;9.25;2.35;;;7.00;99.90;;;;;;5070697;28;20036;-37
2023/03/26 02:08:52;;;;;;;8.35;2.75;;;7.10;99.90;;;;;;5079894;28;20044;-36
2023/03/26 02:11:18;;;;;;;7.78;2.60;;;7.00;99.90;;;;;;5069051;28;20032;-36
2023/03/26 02:13:45;;;;;;;7.57;2.90;;;7.00;99.90;;;;;;5076916;28;20553;-36
2023/03/26 02:16:13;;;;;;;6.25;2.47;;;7.10;99.90;;;;;;5071426;28;20035;-37
2023/03/26 02:18:39;;;;;;;6.28;2.53;;;7.10;99.90;;;;;;5078381;28;20043;-37
2023/03/26 02:21:08;;;;;;;9.85;2.63;;;7.10;99.90;;;;;;5085073;28;20035;-36
2023/03/26 02:23:35;;;;;;;5.78;2.55;;;7.20;99.90;;;;;;5078051;28;20120;-36
2023/03/26 02:26:04;;;;;;;5.55;2.33;;;7.10;99.90;;;;;;5075386;28;20055;-37
2023/03/26 02:28:30;;;;;;;6.13;2.30;;;7.20;99.90;;;;;;5080990;28;20064;-36
2023/03/26 02:30:56;;;;;;;9.98;3.33;;;7.20;99.90;;;;;;5084608;28;20032;-36
2023/03/26 02:33:22;;;;;;;6.68;2.83;;;7.20;99.90;;;;;;5074451;28;20032;-36
2023/03/26 02:35:48;;;;;;;6.95;2.47;;;7.20;99.90;;;;;;5065618;28;20068;-36
2023/03/26 02:38:14;;;;;;;5.07;2.63;;;7.20;99.90;;;;;;5084534;28;20063;-37
2023/03/26 02:40:40;;;;;;;9.15;3.03;;;7.30;99.90;;;;;;5077367;28;20438;-36
2023/03/26 02:43:07;;;;;;;8.02;2.63;;;7.30;99.90;;;;;;5077629;28;20036;-36
2023/03/26 02:45:33;;;;;;;7.50;2.47;;;7.30;99.90;;;;;;5079600;28;20280;-36
2023/03/26 02:47:59;;;;;;;10.77;2.90;;;7.30;99.90;;;;;;5075061;28;20142;-36
2023/03/26 02:50:25;;;;;;;5.28;2.47;;;7.30;99.90;;;;;;5077600;28;20038;-36
2023/03/26 02:52:52;;;;;;;10.45;2.63;;;7.30;99.90;;;;;;5077951;28;20041;-36
2023/03/26 02:55:18;;;;;;;4.63;2.08;;;7.20;99.90;;;;;;5065616;28;20039;-35
2023/03/26 02:57:44;;;;;;;5.75;2.35;;;7.20;99.90;;;;;;5077928;28;20429;-36
2023/03/26 03:00:13;;;;;;;6.80;2.50;;;7.10;99.90;;;;;;5077170;28;20044;-36
2023/03/26 03:02:39;;;;;;;3.63;2.22;;;7.00;99.90;;;;;;5057980;28;20041;-37
2023/03/26 03:05:06;;;;;;;6.25;2.20;;;7.00;99.90;;;;;;5076990;28;20102;-37
2023/03/26 03:07:36;;;;;;;7.03;2.47;;;7.00;99.90;;;;;;5068556;28;20032;-37
2023/03/26 03:10:07;;;;;;;8.18;2.38;;;6.90;99.90;;;;;;5066947;28;20063;-36
2023/03/26 03:12:34;;;;;;;5.28;2.25;;;6.90;99.90;;;;;;5083157;28;20127;-36
2023/03/26 03:14:59;;;;;;;5.50;2.80;;;7.00;99.90;;;;;;5074001;28;20404;-36
2023/03/26 03:17:25;;;;;;;4.63;2.22;;;6.90;99.90;;;;;;5048838;28;20037;-45
2023/03/26 03:19:51;;;;;;;10.38;2.72;;;6.90;99.90;;;;;;5072165;28;20040;-35
2023/03/26 03:22:18;;;;;;;5.85;2.45;;;6.70;99.90;;;;;;5086273;28;20516;-36
2023/03/26 03:24:45;;;;;;;11.13;2.47;;;6.80;99.90;;;;;;5084742;28;20036;-37
2023/03/26 03:27:11;;;;;;;4.47;2.50;;;6.80;99.90;;;;;;5063168;28;20036;-36
2023/03/26 03:29:37;;;;;;;7.18;2.40;;;6.80;99.90;;;;;;5075449;28;20552;-37
2023/03/26 03:32:04;;;;;;;5.15;2.20;;;6.60;99.90;;;;;;5068264;28;20044;-36
2023/03/26 03:34:29;;;;;;;5.80;2.30;;;6.60;99.90;;;;;;5076330;28;20036;-37
2023/03/26 03:36:55;;;;;;;3.92;2.42;;;6.50;99.90;;;;;;5078929;28;20060;-36
2023/03/26 03:39:21;;;;;;;5.25;2.45;;;6.40;99.90;;;;;;5083025;28;20036;-36
2023/03/26 03:41:48;;;;;;;4.05;2.08;;;6.40;99.90;;;;;;5074033;28;20033;-36
2023/03/26 03:44:14;;;;;;;8.30;2.60;;;6.30;99.90;;;;;;5073718;28;20032;-36
2023/03/26 03:46:39;;;;;;;4.38;2.13;;;6.20;99.90;;;;;;5071907;28;20076;-36
2023/03/26 03:49:05;;;;;;;9.32;2.28;;;6.10;99.90;;;;;;5063456;28;20072;-36
2023/03/26 03:51:31;;;;;;;5.57;2.35;;;6.10;99.90;;;;;;5083552;28;20032;-36
2023/03/26 03:53:57;;;;;;;4.22;2.72;;;6.00;99.90;;;;;;5076171;28;20501;-36
2023/03/26 03:56:23;;;;;;;8.30;3.05;;;5.90;99.90;;;;;;5049753;28;20047;-36
2023/03/26 03:58:49;;;;;;;7.68;2.35;;;5.80;99.90;;;;;;5068120;28;20067;-37
2023/03/26 04:01:16;;;;;;;8.35;3.35;;;5.80;99.90;;;;;;5079484;28;20039;-36
2023/03/26 04:03:44;;;;;;;9.82;3.00;;;5.80;99.90;;;;;;5079365;28;20028;-36
2023/03/26 04:06:11;;;;;;;4.05;2.45;;;5.80;99.90;;;;;;5071301;28;20028;-36
2023/03/26 04:08:37;;;;;;;4.97;2.72;;;5.60;99.90;;;;;;5070268;28;20403;-36
2023/03/26 04:11:03;;;;;;;5.57;2.50;;;5.70;99.90;;;;;;5067283;28;20040;-36
2023/03/26 04:13:29;;;;;;;7.10;2.67;;;5.60;99.90;;;;;;5075402;28;20102;-36
2023/03/26 04:15:55;;;;;;;6.15;2.78;;;5.50;99.90;;;;;;5066620;28;20449;-36
2023/03/26 04:18:22;;;;;;;8.75;2.63;;;5.50;99.90;;;;;;5069277;28;20029;-36
2023/03/26 04:20:48;;;;;;;7.97;3.38;;;5.40;99.90;;;;;;5074119;28;20039;-36
2023/03/26 04:23:16;;;;;;;10.13;3.13;;;5.50;99.90;;;;;;5072685;28;20036;-36
2023/03/26 04:25:53;;;;;;;5.32;2.90;;;5.40;99.90;;;;;;5065525;28;20041;-36
2023/03/26 04:28:53;;;;;;;9.40;3.05;;;5.40;99.90;;;;;;5070389;28;20119;-36
2023/03/26 04:31:23;;;;;;;7.85;3.35;;;5.30;99.90;;;;;;5064979;28;20040;-36
2023/03/26 04:33:53;;;;;;;9.43;2.97;;;5.40;99.90;;;;;;5059147;28;20037;-36
2023/03/26 04:36:26;;;;;;;5.38;2.90;;;5.40;99.90;;;;;;5073965;28;20040;-36
2023/03/26 04:38:52;;;;;;;8.15;3.35;;;5.40;99.90;;;;;;5075127;28;20490;-35
2023/03/26 04:41:17;;;;;;;8.55;3.40;;;5.50;99.90;;;;;;5070303;28;20033;-36
2023/03/26 04:43:49;;;;;;;10.23;3.33;;;5.50;99.90;;;;;;5055397;28;20078;-36
2023/03/26 04:46:22;;;;;;;8.48;3.33;;;5.50;99.90;;;;;;5073570;28;20039;-36
2023/03/26 04:48:52;;;;;;;7.43;3.28;;;5.50;99.90;;;;;;5072264;28;20039;-36
2023/03/26 04:51:23;;;;;;;8.57;3.55;;;5.50;99.90;;;;;;5071230;28;20036;-35
2023/03/26 04:53:56;;;;;;;9.18;3.38;;;5.60;99.90;;;;;;5075731;28;20036;-36
2023/03/26 04:56:46;;;;;;;7.70;3.30;;;5.70;99.90;;;;;;5069784;28;20040;-36
2023/03/26 04:59:16;;;;;;;8.35;3.42;;;5.70;99.90;;;;;;5069718;28;20048;-36
2023/03/26 05:01:44;;;;;;;8.05;3.08;;;5.80;99.90;;;;;;5073387;28;20486;-36
2023/03/26 05:04:12;;;;;;;7.90;3.30;;;5.80;99.90;;;;;;5073716;28;20032;-36
2023/03/26 05:06:40;;;;;;;7.65;3.30;;;5.90;99.90;;;;;;5058138;28;20040;-36
2023/03/26 05:09:07;;;;;;;6.80;3.47;;;5.80;99.90;;;;;;5075948;28;20093;-36
2023/03/26 05:11:33;;;;;;;10.20;3.60;;;5.90;99.90;;;;;;5070488;28;20044;-36
2023/03/26 05:13:59;;;;;;;9.23;3.63;;;5.90;99.90;;;;;;5069973;28;20123;-36
2023/03/26 05:16:25;;;;;;;6.25;3.10;;;5.90;99.90;;;;;;5063588;28;20068;-36
2023/03/26 05:18:51;;;;;;;13.27;3.55;;;6.00;99.90;;;;;;5068867;28;20048;-37
2023/03/26 05:21:17;;;;;;;7.55;4.03;;;6.00;99.90;;;;;;5075091;28;20039;-36
2023/03/26 05:23:42;;;;;;;10.82;7.68;;;6.00;99.90;;;;;;5069821;28;20484;-36
2023/03/26 05:26:09;;;;;;;17.00;6.53;;;6.00;99.90;;;;;;5065922;28;20024;-36
2023/03/26 05:28:35;;;;;;;10.10;4.90;;;6.10;99.90;;;;;;5080307;28;20246;-36
2023/03/26 05:31:01;;;;;;;16.77;5.22;;;6.10;99.90;;;;;;5088976;28;20032;-37
2023/03/26 05:33:27;;;;;;;12.05;5.35;;;6.20;99.90;;;;;;5086452;28;20029;-36
2023/03/26 05:36:00;;;;;;;9.40;4.82;;;6.20;99.90;;;;;;5088814;28;20448;-36
2023/03/26 05:38:27;;;;;;;8.95;4.60;;;6.20;99.90;;;;;;5084215;28;20082;-36
2023/03/26 05:40:58;;;;;;;8.82;4.43;;;6.10;99.90;;;;;;5078263;28;20036;-37
2023/03/26 05:43:24;;;;;;;8.38;4.25;;;6.20;99.90;;;;;;5078509;28;20046;-35
2023/03/26 05:45:49;;;;;;;7.60;4.35;;;6.20;99.90;;;;;;5073211;28;20108;-37
2023/03/26 05:48:15;;;;;;;7.50;4.03;;;6.20;99.90;;;;;;5081370;28;20043;-36
2023/03/26 05:50:41;;;;;;;10.15;4.13;;;6.30;99.90;;;;;;5075442;28;20037;-36
2023/03/26 05:53:06;;;;;;;7.18;4.28;;;6.30;99.90;;;;;;5069734;28;20032;-36
2023/03/26 05:55:33;;;;;;;7.75;3.85;;;6.40;99.90;;;;;;5064481;28;20048;-36
2023/03/26 05:57:59;;;;;;;9.25;4.00;;;6.40;99.90;;;;;;5069782;28;20044;-36
2023/03/26 06:00:26;;;;;;;7.40;4.25;;;6.40;99.90;;;;;;5076453;28;20040;-36
2023/03/26 06:02:53;;;;;;;10.52;4.28;;;6.40;99.90;;;;;;5076691;28;20140;-36
2023/03/26 06:05:19;;;;;;;7.70;4.20;;;6.40;99.90;;;;;;5082282;28;20032;-36
2023/03/26 06:07:45;;;;;;;7.90;3.97;;;6.40;99.90;;;;;;5072872;28;20040;-36
2023/03/26 06:10:10;;;;;;;10.55;5.07;;;6.50;99.90;;;;;;5082421;28;20036;-36
2023/03/26 06:12:37;;;;;;;12.35;4.90;;;6.50;99.90;;;;;;5081474;28;20400;-36
2023/03/26 06:15:03;;;;;;;8.48;4.93;;;6.50;99.90;;;;;;5086298;28;20036;-36
2023/03/26 06:17:28;;;;;;;9.52;4.93;;;6.60;99.90;;;;;;5075625;28;20040;-36
2023/03/26 06:19:54;;;;;;;9.85;5.82;;;6.60;99.90;;;;;;5063277;28;20417;-36
2023/03/26 06:22:20;;;;;;;9.98;5.72;;;6.50;99.90;;;;;;5080446;28;20276;-36
2023/03/26 06:24:45;;;;;;;12.07;6.60;;;6.60;99.90;;;;;;5074811;28;20094;-36
2023/03/26 06:27:11;;;;;;;11.10;5.45;;;6.60;99.90;;;;;;5064848;28;20064;-36
2023/03/26 06:29:37;;;;;;;11.80;4.97;;;6.70;99.90;;;;;;5079735;28;20123;-36
2023/03/26 06:32:02;;;;;;;9.75;5.13;;;6.70;99.90;;;;;;5077149;28;20043;-37
2023/03/26 06:34:28;;;;;;;9.35;4.40;;;6.70;99.90;;;;;;5066077;28;20048;-36
2023/03/26 06:36:54;;;;;;;7.82;3.88;;;6.80;99.90;;;;;;5068568;28;20113;-36
2023/03/26 06:39:22;;;;;;;9.10;4.35;;;6.80;99.90;;;;;;5061260;28;20040;-36
2023/03/26 06:41:47;;;;;;;9.95;4.68;;;6.80;99.90;;;;;;5067549;28;20028;-37
2023/03/26 06:44:13;;;;;;;11.32;4.40;;;6.90;99.90;;;;;;5070087;28;20040;-36
2023/03/26 06:46:39;;;;;;;8.93;4.40;;;6.90;99.90;;;;;;5071891;28;20036;-36
2023/03/26 06:49:05;;;;;;;8.70;4.85;;;7.00;99.90;;;;;;5071645;28;20077;-37
2023/03/26 06:51:31;;;;;;;13.32;4.05;;;7.00;99.90;;;;;;5075265;28;20132;-36
2023/03/26 06:53:56;;;;;;;10.63;4.28;;;7.10;99.90;;;;;;5065910;28;20083;-36
2023/03/26 06:56:22;;;;;;;8.68;4.32;;;7.10;99.90;;;;;;5059892;28;20033;-36
2023/03/26 06:58:48;;;;;;;10.45;3.95;;;7.10;99.90;;;;;;5064948;28;20517;-36
2023/03/26 07:01:13;;;;;;;8.60;4.18;;;7.20;99.90;;;;;;5069580;28;20039;-36
2023/03/26 07:03:39;;;;;;;11.18;4.47;;;7.30;99.90;;;;;;5071428;28;20094;-36
2023/03/26 07:06:05;;;;;;;7.65;3.70;;;7.40;99.90;;;;;;5065765;28;20217;-36
2023/03/26 07:08:31;;;;;;;11.57;4.38;;;7.40;99.90;;;;;;5069195;28;20032;-36
2023/03/26 07:10:57;;;;;;;9.70;3.67;;;7.40;99.90;;;;;;5067398;28;20044;-36
2023/03/26 07:13:23;;;;;;;11.90;4.20;;;7.50;99.90;;;;;;5076238;28;20232;-37
2023/03/26 07:15:48;;;;;;;12.98;4.85;;;7.60;99.90;;;;;;5068706;28;20033;-36
2023/03/26 07:18:14;;;;;;;15.30;5.13;;;7.70;99.90;;;;;;5054436;28;20037;-36
2023/03/26 07:20:41;;;;;;;12.25;4.40;;;7.60;99.90;;;;;;5080320;28;20032;-37
2023/03/26 07:23:09;;;;;;;10.77;4.38;;;7.80;99.90;;;;;;5070246;28;20120;-37
2023/03/26 07:25:34;;;;;;;11.90;4.07;;;7.80;99.90;;;;;;5072552;28;20086;-37
2023/03/26 07:28:23;;;;;;;15.90;4.30;;;7.90;99.90;;;;;;5055557;28;20032;-37
2023/03/26 07:31:07;;;;;;;13.00;4.25;;;7.90;99.90;;;;;;5068254;28;20056;-37
2023/03/26 07:33:52;;;;;;;20.45;5.07;;;7.90;99.90;;;;;;5057335;28;20091;-36
2023/03/26 07:36:24;;;;;;;15.73;4.15;;;8.10;99.90;;;;;;5063836;28;20036;-37
2023/03/26 07:39:30;;;;;;;11.18;3.80;;;8.10;99.90;;;;;;5068776;28;20041;-37
2023/03/26 07:42:17;;;;;;;12.20;4.20;;;8.20;99.90;;;;;;5066872;28;20048;-36
2023/03/26 07:44:46;;;;;;;16.70;3.97;;;8.30;99.90;;;;;;5075157;28;20035;-37
2023/03/26 07:47:28;;;;;;;16.63;3.47;;;8.30;99.90;;;;;;5068357;28;20032;-37
2023/03/26 07:49:56;;;;;;;15.73;4.15;;;8.30;99.90;;;;;;5064699;28;20398;-37
2023/03/26 07:52:23;;;;;;;14.80;3.08;;;8.30;99.90;;;;;;5058049;28;20072;-37
2023/03/26 07:54:49;;;;;;;12.95;3.30;;;8.40;99.90;;;;;;5062157;28;20124;-37
2023/03/26 07:57:52;;;;;;;13.25;3.63;;;8.40;99.90;;;;;;5063584;28;20510;-37
2023/03/26 08:00:17;;;;;;;15.70;3.30;;;8.40;99.90;;;;;;5036212;28;20094;-37
2023/03/26 08:03:26;;;;;;;11.88;3.95;;;8.50;99.90;;;;;;5059674;28;20076;-36
2023/03/26 08:06:21;;;;;;;10.90;2.90;;;8.50;99.90;;;;;;5044095;28;20049;-37
2023/03/26 08:08:52;;;;;;;12.05;3.33;;;8.50;99.90;;;;;;5047626;28;20044;-37
2023/03/26 08:11:37;;;;;;;16.42;3.70;;;8.60;99.90;;;;;;5070064;28;20032;-37
2023/03/26 08:14:36;;;;;;;11.68;3.60;;;8.60;99.90;;;;;;5058684;28;20032;-37
2023/03/26 08:17:27;;;;;;;15.88;3.85;;;8.60;99.90;;;;;;5064542;28;20075;-37
2023/03/26 08:20:27;;;;;;;17.27;3.78;;;8.70;99.90;;;;;;5059758;28;20036;-37
2023/03/26 08:23:15;;;;;;;12.07;3.35;;;8.70;99.90;;;;;;5057642;28;20036;-37
2023/03/26 08:25:58;;;;;;;14.20;3.92;;;8.80;99.90;;;;;;5059566;28;20039;-36
2023/03/26 08:28:44;;;;;;;19.23;4.13;;;8.80;99.90;;;;;;5054928;28;20032;-37
2023/03/26 08:31:12;;;;;;;13.45;4.72;;;8.80;99.90;;;;;;5056451;28;20037;-36
2023/03/26 08:33:39;;;;;;;12.93;3.83;;;8.80;99.90;;;;;;5059906;28;20033;-36
2023/03/26 08:36:07;;;;;;;15.82;3.78;;;8.70;99.90;;;;;;5067974;28;20029;-36
2023/03/26 08:38:33;;;;;;;11.25;3.05;;;8.60;99.90;;;;;;5060579;28;20071;-36
2023/03/26 08:41:11;;;;;;;12.48;3.42;;;8.60;99.90;;;;;;5059837;28;20072;-37
2023/03/26 08:44:05;;;;;;;15.35;3.50;;;8.70;99.90;;;;;;5055974;28;20470;-37
2023/03/26 08:46:51;;;;;;;11.32;3.97;;;8.70;99.90;;;;;;5057610;28;20086;-37
2023/03/26 08:49:44;;;;;;;12.45;3.17;;;8.80;99.90;;;;;;5058589;28;20413;-36
2023/03/26 08:52:35;;;;;;;14.80;4.33;;;8.80;99.90;;;;;;5061890;28;20073;-37
2023/03/26 08:55:03;;;;;;;16.65;3.95;;;8.90;99.90;;;;;;5063680;28;20055;-37
2023/03/26 08:57:44;;;;;;;14.60;3.55;;;8.90;99.90;;;;;;5057909;28;20036;-36
2023/03/26 09:00:32;;;;;;;15.77;3.67;;;8.90;99.90;;;;;;5061886;28;20039;-37
2023/03/26 09:03:07;;;;;;;13.80;3.35;;;8.90;99.90;;;;;;5057359;28;20479;-37
2023/03/26 09:06:05;;;;;;;13.52;3.15;;;9.00;99.90;;;;;;5055107;28;20108;-37
2023/03/26 09:08:55;;;;;;;11.90;2.90;;;9.00;99.90;;;;;;5063298;28;20036;-36
2023/03/26 09:11:55;;;;;;;15.02;3.08;;;9.00;99.90;;;;;;5055901;28;20040;-37
2023/03/26 09:14:28;;;;;;;11.70;2.65;;;8.90;99.90;;;;;;5060131;28;20029;-36
2023/03/26 09:17:00;;;;;;;17.60;3.65;;;8.90;99.90;;;;;;5065237;28;20078;-36
2023/03/26 09:19:40;;;;;;;11.00;3.03;;;9.00;99.90;;;;;;5057832;28;20120;-37
2023/03/26 09:22:09;;;;;;;16.23;3.90;;;8.90;99.90;;;;;;5060937;28;20044;-37
2023/03/26 09:24:44;;;;;;;13.60;3.22;;;8.90;99.90;;;;;;5072913;28;20485;-37
2023/03/26 09:27:37;;;;;;;11.18;3.03;;;8.60;99.90;;;;;;5056363;28;20037;-38
2023/03/26 09:30:22;;;;;;;13.73;3.40;;;8.80;99.90;;;;;;5067027;28;20865;-36
2023/03/26 09:33:21;;;;;;;15.35;3.33;;;8.80;99.90;;;;;;5060697;28;20041;-37
2023/03/26 09:35:51;;;;;;;12.38;2.80;;;8.80;99.90;;;;;;5056769;28;20509;-37
2023/03/26 09:38:40;;;;;;;14.68;3.00;;;8.80;99.90;;;;;;5061384;28;20414;-37
2023/03/26 09:41:20;;;;;;;12.82;3.22;;;8.90;99.90;;;;;;5057860;28;20057;-36
2023/03/26 09:44:05;;;;;;;13.45;3.13;;;8.90;99.90;;;;;;5064736;28;20494;-36
2023/03/26 09:46:54;;;;;;;14.60;2.60;;;9.00;99.90;;;;;;5064090;28;20103;-37
2023/03/26 09:49:55;;;;;;;13.65;3.47;;;9.10;99.90;;;;;;5057339;28;20041;-36
2023/03/26 09:52:23;;;;;;;12.30;3.13;;;9.10;99.90;;;;;;5056504;28;20049;-36
2023/03/26 09:55:23;;;;;;;16.42;3.25;;;9.20;99.90;;;;;;5055918;28;20033;-37
2023/03/26 09:57:56;;;;;;;12.48;2.90;;;9.20;99.90;;;;;;5060519;28;20425;-37
2023/03/26 10:00:25;;;;;;;13.05;2.47;;;9.30;99.90;;;;;;5060742;28;20438;-37
2023/03/26 10:03:03;;;;;;;16.20;4.10;;;9.40;99.90;;;;;;5059951;28;20044;-38
2023/03/26 10:05:40;;;;;;;14.05;3.20;;;9.60;99.90;;;;;;5062311;28;20490;-37
2023/03/26 10:08:28;;;;;;;12.13;3.35;;;9.70;99.90;;;;;;5068840;28;20039;-37
2023/03/26 10:11:01;;;;;;;12.65;2.72;;;10.00;99.90;;;;;;5072317;28;20051;-37
2023/03/26 10:13:29;;;;;;;18.10;3.25;;;10.30;99.90;;;;;;5071524;28;20037;-37
2023/03/26 10:16:30;;;;;;;17.98;3.40;;;10.60;99.90;;;;;;5075306;28;20048;-37
2023/03/26 10:19:11;;;;;;;12.57;2.72;;;11.10;99.90;;;;;;5053947;28;20049;-36
2023/03/26 10:21:52;;;;;;;14.65;3.00;;;11.20;99.90;;;;;;5078724;28;20036;-37
2023/03/26 10:24:51;;;;;;;15.40;3.08;;;11.20;99.90;;;;;;5069319;28;20128;-37
2023/03/26 10:27:49;;;;;;;10.80;3.30;;;11.50;99.90;;;;;;5077775;28;20119;-37
2023/03/26 10:30:21;;;;;;;11.05;3.17;;;11.70;99.90;;;;;;5070716;28;20044;-36
2023/03/26 10:32:55;;;;;;;11.93;3.08;;;11.90;99.90;;;;;;5074487;28;20402;-37
2023/03/26 10:35:46;;;;;;;9.15;2.42;;;12.00;99.90;;;;;;5076368;28;20040;-37
2023/03/26 10:38:17;;;;;;;12.93;2.80;;;12.20;99.90;;;;;;5076931;28;20069;-36
2023/03/26 10:41:05;;;;;;;10.98;2.65;;;12.20;99.90;;;;;;5070624;28;20043;-36
2023/03/26 10:44:04;;;;;;;14.05;2.88;;;12.40;99.90;;;;;;5081019;28;20486;-36
2023/03/26 10:46:42;;;;;;;12.88;2.60;;;12.40;99.90;;;;;;5074064;28;20032;-36
2023/03/26 10:49:32;;;;;;;8.93;2.80;;;12.40;99.90;;;;;;5071311;28;20036;-36
2023/03/26 10:52:03;;;;;;;8.32;2.45;;;12.50;99.90;;;;;;5073278;28;20072;-36
2023/03/26 10:54:55;;;;;;;9.20;2.15;;;12.50;99.90;;;;;;5084368;28;20393;-36
2023/03/26 10:57:33;;;;;;;9.35;2.35;;;12.60;99.90;;;;;;5051917;28;20066;-37
2023/03/26 11:00:27;;;;;;;10.10;2.40;;;12.50;99.90;;;;;;5059344;28;20040;-36
2023/03/26 11:03:24;;;;;;;12.38;3.60;;;12.30;99.90;;;;;;5046361;28;20387;-37
2023/03/26 11:06:24;;;;;;;13.95;3.00;;;12.30;99.90;;;;;;5052382;28;20139;-36
2023/03/26 11:08:57;;;;;;;11.30;2.92;;;12.30;99.90;;;;;;5023431;28;20542;-37
2023/03/26 11:11:37;;;;;;;11.13;2.30;;;12.40;99.90;;;;;;5060423;28;20412;-36
2023/03/26 11:14:16;;;;;;;9.55;2.25;;;12.40;99.90;;;;;;5062782;28;20036;-36
2023/03/26 11:16:56;;;;;;;10.77;2.83;;;12.30;99.90;;;;;;5068796;28;20111;-37
2023/03/26 11:19:28;;;;;;;7.28;2.30;;;12.30;99.90;;;;;;5063071;28;20131;-36
2023/03/26 11:22:08;;;;;;;11.48;2.63;;;12.40;99.90;;;;;;5071391;28;20040;-37
2023/03/26 11:24:48;;;;;;;5.50;1.85;;;12.40;99.90;;;;;;5064156;28;20517;-36
2023/03/26 11:27:35;;;;;;;10.90;2.28;;;12.40;99.90;;;;;;5067992;28;20047;-36
2023/03/26 11:30:32;;;;;;;8.43;2.50;;;12.40;99.90;;;;;;5063857;28;20138;-36
2023/03/26 11:33:04;;;;;;;9.40;2.85;;;12.60;99.90;;;;;;5064329;28;20052;-37
2023/03/26 11:35:58;;;;;;;7.80;2.10;;;12.70;99.90;;;;;;5060463;28;20040;-37
2023/03/26 11:38:39;;;;;;;10.93;2.70;;;12.80;99.90;;;;;;5065448;28;20075;-36
2023/03/26 11:41:23;;;;;;;8.95;2.40;;;13.00;99.90;;;;;;5060889;28;20086;-36
2023/03/26 11:44:14;;;;;;;9.52;2.10;;;13.10;99.90;;;;;;5055864;28;20032;-37
2023/03/26 11:46:44;;;;;;;8.35;2.25;;;13.00;99.90;;;;;;5063915;28;20048;-36
2023/03/26 11:49:13;;;;;;;9.60;2.08;;;12.90;99.90;;;;;;5061639;28;20052;-36
2023/03/26 11:51:41;;;;;;;9.88;3.30;;;13.00;99.90;;;;;;5072789;28;20340;-36
2023/03/26 11:54:11;;;;;;;11.82;2.63;;;12.90;99.90;;;;;;5068258;28;20668;-36
2023/03/26 11:56:48;;;;;;;9.55;3.22;;;12.90;99.90;;;;;;5073843;28;20037;-37
2023/03/26 11:59:15;;;;;;;9.50;3.05;;;12.90;99.90;;;;;;5066242;28;20052;-36
2023/03/26 12:01:40;;;;;;;10.10;2.58;;;12.90;99.90;;;;;;5064708;28;20043;-37
2023/03/26 12:04:12;;;;;;;14.35;3.65;;;12.90;99.90;;;;;;5073726;28;20115;-36
2023/03/26 12:06:49;;;;;;;9.35;2.42;;;13.00;99.90;;;;;;5051586;28;20428;-37
2023/03/26 12:09:18;;;;;;;18.00;4.55;;;13.10;99.90;;;;;;5073137;28;20102;-37
2023/03/26 12:11:46;;;;;;;10.88;2.60;;;13.20;99.90;;;;;;5067987;28;20079;-37
2023/03/26 12:14:21;;;;;;;9.98;3.03;;;13.20;99.90;;;;;;5069881;28;20036;-38
2023/03/26 12:17:23;;;;;;;10.23;2.78;;;13.10;99.90;;;;;;5062093;28;20060;-37
2023/03/26 12:19:49;;;;;;;6.47;2.08;;;13.10;99.90;;;;;;5060521;28;20525;-36
2023/03/26 12:22:35;;;;;;;7.05;2.50;;;13.10;99.90;;;;;;5059068;28;20028;-37
2023/03/26 12:25:22;;;;;;;10.13;2.88;;;13.00;99.90;;;;;;5061600;28;20410;-37
2023/03/26 12:28:11;;;;;;;15.00;3.30;;;12.80;99.90;;;;;;5073119;28;20405;-36
2023/03/26 12:30:39;;;;;;;12.77;2.50;;;12.80;99.90;;;;;;5079043;28;20047;-36
2023/03/26 12:33:13;;;;;;;8.55;2.38;;;12.80;99.90;;;;;;5067831;28;20040;-36
2023/03/26 12:35:39;;;;;;;10.65;2.72;;;12.70;99.90;;;;;;5061774;28;20402;-36
2023/03/26 12:38:31;;;;;;;13.13;3.15;;;12.40;99.90;;;;;;5070848;28;20043;-37
2023/03/26 12:41:15;;;;;;;6.70;2.00;;;12.20;99.90;;;;;;5067011;28;20040;-36
2023/03/26 12:43:46;;;;;;;;;;;12.00;99.90;;;;;;5062528;28;20036;-36
2023/03/26 12:46:32;;;;;;;7.28;2.33;;;11.90;99.90;;;;;;5040089;28;20072;-36
2023/03/26 12:49:10;;;;;;;7.65;2.30;;;11.80;99.90;;;;;;5065417;28;20036;-36
2023/03/26 12:52:09;;;;;;;8.05;2.50;;;11.80;99.90;;;;;;5064025;28;20037;-37
2023/03/26 12:55:05;;;;;;;10.02;2.83;;;11.80;99.90;;;;;;5054809;28;20036;-36
2023/03/26 12:57:37;;;;;;;14.43;2.50;;;11.70;99.90;;;;;;5064945;28;20441;-36
2023/03/26 13:00:13;;;;;;;7.38;2.20;;;11.60;99.90;;;;;;5064351;28;20036;-36
2023/03/26 13:03:13;;;;;;;10.80;2.30;;;11.50;99.90;;;;;;5064335;28;20029;-36
2023/03/26 13:06:03;;;;;;;10.82;2.60;;;11.50;99.90;;;;;;5058075;28;20041;-36
2023/03/26 13:08:55;;;;;;;12.98;3.05;;;11.50;99.90;;;;;;5057472;28;20032;-37
2023/03/26 13:11:45;;;;;;;8.00;2.08;;;11.40;99.90;;;;;;5063722;28;20478;-36
2023/03/26 13:14:11;;;;;;;12.00;3.03;;;11.60;99.90;;;;;;5060328;28;20032;-36
2023/03/26 13:16:49;;;;;;;13.65;2.88;;;11.60;99.90;;;;;;5071485;28;20078;-36
2023/03/26 13:19:39;;;;;;;9.13;2.28;;;11.70;99.90;;;;;;5071808;28;20409;-36
2023/03/26 13:22:16;;;;;;;6.28;2.22;;;11.60;99.90;;;;;;5063899;28;20436;-36
2023/03/26 13:25:08;;;;;;;8.88;2.58;;;11.50;99.90;;;;;;5072765;28;20038;-37
2023/03/26 13:27:45;;;;;;;8.93;2.15;;;11.50;99.90;;;;;;5069327;28;20045;-36